createdAt,value
2019-02-22T00:01:35.521Z,7.20
2019-02-22T00:04:04.507Z,7.23
2019-02-22T00:06:33.119Z,7.90
2019-02-22T00:09:02.073Z,7.17
2019-02-22T00:11:30.770Z,7.63
2019-02-22T00:13:59.646Z,7.50
2019-02-22T00:16:28.328Z,7.30
2019-02-22T00:18:57.067Z,7.77
2019-02-22T00:21:26.206Z,7.07
2019-02-22T00:23:54.970Z,7.37
2019-02-22T00:26:23.781Z,7.50
2019-02-22T00:28:52.461Z,7.43
2019-02-22T00:31:21.176Z,7.27
2019-02-22T00:33:49.887Z,7.00
2019-02-22T00:36:18.662Z,7.70
2019-02-22T00:38:47.819Z,7.63
2019-02-22T00:41:16.514Z,7.73
2019-02-22T00:43:45.295Z,7.90
2019-02-22T00:46:14.006Z,6.10
2019-02-22T00:48:42.881Z,6.87
2019-02-22T00:51:11.893Z,7.80
2019-02-22T00:53:40.652Z,7.17
2019-02-22T00:56:09.372Z,6.40
2019-02-22T00:58:38.236Z,8.13
2019-02-22T01:01:06.920Z,6.97
2019-02-22T01:03:35.636Z,7.20
2019-02-22T01:06:04.724Z,7.33
2019-02-22T01:08:33.979Z,6.67
2019-02-22T01:11:02.785Z,7.10
2019-02-22T01:13:31.574Z,6.33
2019-02-22T01:16:00.245Z,7.17
2019-02-22T01:18:28.892Z,7.13
2019-02-22T01:20:57.841Z,6.80
2019-02-22T01:23:26.514Z,7.03
2019-02-22T01:25:55.439Z,6.10
2019-02-22T01:28:24.268Z,6.87
2019-02-22T01:30:53.046Z,6.87
2019-02-22T01:33:22.051Z,5.97
2019-02-22T01:35:51.102Z,6.60
2019-02-22T01:38:19.840Z,7.40
2019-02-22T01:40:48.498Z,5.90
2019-02-22T01:43:17.181Z,6.60
2019-02-22T01:45:46.165Z,6.23
2019-02-22T01:48:15.240Z,6.67
2019-02-22T01:50:44.072Z,6.53
2019-02-22T01:53:12.856Z,6.60
2019-02-22T01:55:41.833Z,6.53
2019-02-22T01:58:10.532Z,6.87
2019-02-22T02:00:39.412Z,6.40
2019-02-22T02:03:08.147Z,6.83
2019-02-22T02:05:36.782Z,6.63
2019-02-22T02:08:05.548Z,5.80
2019-02-22T02:10:34.274Z,6.43
2019-02-22T02:13:03.102Z,7.03
2019-02-22T02:15:31.839Z,6.30
2019-02-22T02:18:00.625Z,6.23
2019-02-22T02:20:29.321Z,7.10
2019-02-22T02:22:58.396Z,6.20
2019-02-22T02:25:27.138Z,6.27
2019-02-22T02:27:55.796Z,6.40
2019-02-22T02:30:24.485Z,6.40
2019-02-22T02:32:53.298Z,6.03
2019-02-22T02:35:21.991Z,6.70
2019-02-22T02:37:50.974Z,6.43
2019-02-22T02:40:19.662Z,6.50
2019-02-22T02:42:48.358Z,6.67
2019-02-22T02:45:17.058Z,6.60
2019-02-22T02:47:45.932Z,6.57
2019-02-22T02:50:16.392Z,6.03
2019-02-22T02:52:45.327Z,6.03
2019-02-22T02:55:25.311Z,6.40
2019-02-22T02:57:53.956Z,5.60
2019-02-22T03:00:22.671Z,5.60
2019-02-22T03:02:51.350Z,5.67
2019-02-22T03:05:21.886Z,5.87
2019-02-22T03:07:50.523Z,6.57
2019-02-22T03:10:19.420Z,6.33
2019-02-22T03:12:48.162Z,5.80
2019-02-22T03:15:18.806Z,5.60
2019-02-22T03:17:47.510Z,5.93
2019-02-22T03:20:16.342Z,5.73
2019-02-22T03:22:45.172Z,5.40
2019-02-22T03:25:13.992Z,5.67
2019-02-22T03:27:42.989Z,6.07
2019-02-22T03:30:12.213Z,6.03
2019-02-22T03:32:40.854Z,5.90
2019-02-22T03:35:09.648Z,5.53
2019-02-22T03:37:38.469Z,6.10
2019-02-22T03:40:07.134Z,6.07
2019-02-22T03:42:35.995Z,6.00
2019-02-22T03:45:05.023Z,5.93
2019-02-22T03:47:35.385Z,6.23
2019-02-22T03:50:04.961Z,5.63
2019-02-22T03:52:37.578Z,5.57
2019-02-22T03:55:06.597Z,5.70
2019-02-22T03:57:35.549Z,5.33
2019-02-22T04:00:04.833Z,5.33
2019-02-22T04:02:33.583Z,5.47
2019-02-22T04:05:02.628Z,5.60
2019-02-22T04:07:31.532Z,5.47
2019-02-22T04:10:00.351Z,5.10
2019-02-22T04:12:29.289Z,5.20
2019-02-22T04:14:58.222Z,5.67
2019-02-22T04:17:26.918Z,5.50
2019-02-22T04:19:55.915Z,5.73
2019-02-22T04:22:24.663Z,6.03
2019-02-22T04:24:53.349Z,5.10
2019-02-22T04:27:22.085Z,5.60
2019-02-22T04:29:50.804Z,5.73
2019-02-22T04:32:19.554Z,5.70
2019-02-22T04:34:48.288Z,5.30
2019-02-22T04:37:17.374Z,5.20
2019-02-22T04:39:46.094Z,6.43
2019-02-22T04:42:15.104Z,6.47
2019-02-22T04:44:44.124Z,5.37
2019-02-22T04:47:12.909Z,6.00
2019-02-22T04:49:41.630Z,5.20
2019-02-22T04:52:10.309Z,5.50
2019-02-22T04:54:39.086Z,5.37
2019-02-22T04:57:07.789Z,5.20
2019-02-22T04:59:36.575Z,5.53
2019-02-22T05:02:05.213Z,5.87
2019-02-22T05:04:33.948Z,5.73
2019-02-22T05:07:02.733Z,5.70
2019-02-22T05:09:31.448Z,5.67
2019-02-22T05:12:10.389Z,5.40
2019-02-22T05:14:30.653Z,5.23
2019-02-22T05:16:59.403Z,5.53
2019-02-22T05:19:28.311Z,5.40
2019-02-22T05:21:57.017Z,5.70
2019-02-22T05:24:25.771Z,5.40
2019-02-22T05:26:54.468Z,5.77
2019-02-22T05:29:23.209Z,5.73
2019-02-22T05:31:51.891Z,5.80
2019-02-22T05:34:20.849Z,5.57
2019-02-22T05:36:49.519Z,6.10
2019-02-22T05:39:19.568Z,6.20
2019-02-22T05:41:48.518Z,7.13
2019-02-22T05:44:17.196Z,6.27
2019-02-22T05:46:46.068Z,6.60
2019-02-22T05:49:15.086Z,7.07
2019-02-22T05:51:43.835Z,7.03
2019-02-22T05:54:12.616Z,7.40
2019-02-22T05:56:41.434Z,7.43
2019-02-22T05:59:10.997Z,7.03
2019-02-22T06:01:39.780Z,7.27
2019-02-22T06:04:08.762Z,6.63
2019-02-22T06:06:37.674Z,6.97
2019-02-22T06:09:06.795Z,6.70
2019-02-22T06:11:35.644Z,6.73
2019-02-22T06:14:04.491Z,6.13
2019-02-22T06:16:33.436Z,5.73
2019-02-22T06:19:02.201Z,5.87
2019-02-22T06:21:31.222Z,5.63
2019-02-22T06:24:02.704Z,5.77
2019-02-22T06:26:30.617Z,5.70
2019-02-22T06:28:59.487Z,5.40
2019-02-22T06:31:28.176Z,6.00
2019-02-22T06:33:57.280Z,5.83
2019-02-22T06:36:25.939Z,5.70
2019-02-22T06:38:54.643Z,5.53
2019-02-22T06:41:24.029Z,5.67
2019-02-22T06:43:52.722Z,5.90
2019-02-22T06:46:21.449Z,5.27
2019-02-22T06:48:50.490Z,5.40
2019-02-22T06:51:19.317Z,5.30
2019-02-22T06:53:48.003Z,5.07
2019-02-22T06:56:16.685Z,5.57
2019-02-22T06:58:45.635Z,4.53
2019-02-22T07:01:14.559Z,5.13
2019-02-22T07:03:43.284Z,5.20
2019-02-22T07:06:12.185Z,4.77
2019-02-22T07:08:40.967Z,5.17
2019-02-22T07:11:32.255Z,5.63
2019-02-22T07:14:00.973Z,5.17
2019-02-22T07:16:29.716Z,5.23
2019-02-22T07:18:58.319Z,6.47
2019-02-22T07:21:27.071Z,6.77
2019-02-22T07:23:55.764Z,6.70
2019-02-22T07:26:24.457Z,6.70
2019-02-22T07:28:53.233Z,6.07
2019-02-22T07:31:21.937Z,5.67
2019-02-22T07:33:50.661Z,5.90
2019-02-22T07:36:19.399Z,5.77
2019-02-22T07:38:48.069Z,5.23
2019-02-22T07:41:16.999Z,5.07
2019-02-22T07:43:45.869Z,5.30
2019-02-22T07:46:14.565Z,5.03
2019-02-22T07:48:43.401Z,5.47
2019-02-22T07:51:12.085Z,5.87
2019-02-22T07:53:41.023Z,5.33
2019-02-22T07:56:10.071Z,5.53
2019-02-22T07:58:38.755Z,4.40
2019-02-22T08:01:07.591Z,7.67
2019-02-22T08:03:37.418Z,5.57
2019-02-22T08:06:06.315Z,5.47
2019-02-22T08:08:35.241Z,6.00
2019-02-22T08:11:04.392Z,5.73
2019-02-22T08:13:33.109Z,5.03
2019-02-22T08:16:01.873Z,6.00
2019-02-22T08:18:30.555Z,5.80
2019-02-22T08:21:01.023Z,6.83
2019-02-22T08:23:29.917Z,5.83
2019-02-22T08:25:58.923Z,6.60
2019-02-22T08:28:27.725Z,5.30
2019-02-22T08:30:56.375Z,5.17
2019-02-22T08:33:24.997Z,5.30
2019-02-22T08:35:53.678Z,5.17
2019-02-22T08:38:22.425Z,5.93
2019-02-22T08:40:51.247Z,5.80
2019-02-22T08:43:30.742Z,5.60
2019-02-22T08:45:50.717Z,5.43
2019-02-22T08:48:19.429Z,5.13
2019-02-22T08:50:48.214Z,5.93
2019-02-22T08:53:17.045Z,5.63
2019-02-22T08:55:45.736Z,6.00
2019-02-22T08:58:14.387Z,5.00
2019-02-22T09:00:43.113Z,5.07
2019-02-22T09:03:11.739Z,5.27
2019-02-22T09:05:40.722Z,5.27
2019-02-22T09:08:09.519Z,5.00
2019-02-22T09:10:38.269Z,5.37
2019-02-22T09:13:06.937Z,5.30
2019-02-22T09:15:35.626Z,5.13
2019-02-22T09:18:04.471Z,5.77
2019-02-22T09:20:33.187Z,4.90
2019-02-22T09:23:03.801Z,5.00
2019-02-22T09:25:32.533Z,5.73
2019-02-22T09:28:01.261Z,5.50
2019-02-22T09:30:30.041Z,5.30
2019-02-22T09:33:00.548Z,4.77
2019-02-22T09:35:29.257Z,5.50
2019-02-22T09:37:58.027Z,5.30
2019-02-22T09:40:26.801Z,5.73
2019-02-22T09:42:55.425Z,5.20
2019-02-22T09:45:24.683Z,5.80
2019-02-22T09:47:53.461Z,4.93
2019-02-22T09:50:22.095Z,5.90
2019-02-22T09:52:50.840Z,5.00
2019-02-22T09:55:19.515Z,5.40
2019-02-22T09:57:48.220Z,5.33
2019-02-22T10:00:16.885Z,6.30
2019-02-22T10:02:45.578Z,5.93
2019-02-22T10:05:14.311Z,5.87
2019-02-22T10:07:42.944Z,5.80
2019-02-22T10:10:11.576Z,6.03
2019-02-22T10:12:40.320Z,6.43
2019-02-22T10:15:09.134Z,6.30
2019-02-22T10:17:38.190Z,5.67
2019-02-22T10:20:07.295Z,6.00
2019-02-22T10:22:36.047Z,5.70
2019-02-22T10:25:05.067Z,5.40
2019-02-22T10:27:33.795Z,7.00
2019-02-22T10:30:02.565Z,6.17
2019-02-22T10:32:31.246Z,6.43
2019-02-22T10:35:01.759Z,5.80
2019-02-22T10:37:30.454Z,6.20
2019-02-22T10:39:59.249Z,5.80
2019-02-22T10:42:27.973Z,6.30
2019-02-22T10:44:56.715Z,5.97
2019-02-22T10:47:25.391Z,5.37
2019-02-22T10:49:54.117Z,6.43
2019-02-22T10:52:22.981Z,6.40
2019-02-22T10:54:51.660Z,6.27
2019-02-22T10:57:20.377Z,6.50
2019-02-22T10:59:49.034Z,6.87
2019-02-22T11:02:17.717Z,6.10
2019-02-22T11:04:46.451Z,4.90
2019-02-22T11:07:15.233Z,5.63
2019-02-22T11:09:43.985Z,5.67
2019-02-22T11:12:12.813Z,5.83
2019-02-22T11:14:41.572Z,6.83
2019-02-22T11:17:10.341Z,5.30
2019-02-22T11:19:39.133Z,5.10
2019-02-22T11:22:07.864Z,5.50
2019-02-22T11:24:36.616Z,6.17
2019-02-22T11:27:05.495Z,6.00
2019-02-22T11:29:34.303Z,6.50
2019-02-22T11:32:02.979Z,6.23
2019-02-22T11:34:31.589Z,6.73
2019-02-22T11:37:02.175Z,6.43
2019-02-22T11:39:30.859Z,5.77
2019-02-22T11:41:59.567Z,6.70
2019-02-22T11:44:28.252Z,6.97
2019-02-22T11:46:56.901Z,6.67
2019-02-22T11:49:25.811Z,6.00
2019-02-22T11:51:56.017Z,5.70
2019-02-22T11:54:25.017Z,6.03
2019-02-22T11:56:53.824Z,6.17
2019-02-22T11:59:22.706Z,5.60
2019-02-22T12:01:51.715Z,5.73
2019-02-22T12:04:20.561Z,5.40
2019-02-22T12:06:49.284Z,5.40
2019-02-22T12:09:17.985Z,4.93
2019-02-22T12:11:47.090Z,4.60
2019-02-22T12:14:15.852Z,4.20
2019-02-22T12:16:44.596Z,4.40
2019-02-22T12:19:13.436Z,4.00
2019-02-22T12:21:42.214Z,4.20
2019-02-22T12:24:10.924Z,4.23
2019-02-22T12:26:39.695Z,4.17
2019-02-22T12:29:08.406Z,5.30
2019-02-22T12:31:37.168Z,5.33
2019-02-22T12:34:05.839Z,5.50
2019-02-22T12:36:34.477Z,5.00
2019-02-22T12:39:05.498Z,4.90
2019-02-22T12:41:34.298Z,5.07
2019-02-22T12:44:03.036Z,5.13
2019-02-22T12:46:32.136Z,4.73
2019-02-22T12:49:02.780Z,4.93
2019-02-22T12:51:31.548Z,4.97
2019-02-22T12:54:00.268Z,5.20
2019-02-22T12:56:56.021Z,4.90
2019-02-22T12:59:01.187Z,5.20
2019-02-22T13:01:29.830Z,6.20
2019-02-22T13:03:58.614Z,5.73
2019-02-22T13:06:27.424Z,5.93
2019-02-22T13:08:56.237Z,5.07
2019-02-22T13:11:25.280Z,5.50
2019-02-22T13:13:54.024Z,6.63
2019-02-22T13:16:22.652Z,6.10
2019-02-22T13:18:51.251Z,6.50
2019-02-22T13:21:20.014Z,7.30
2019-02-22T13:23:48.720Z,6.63
2019-02-22T13:26:18.106Z,6.87
2019-02-22T13:28:47.199Z,6.77
2019-02-22T13:31:16.008Z,7.43
2019-02-22T13:33:44.716Z,8.20
2019-02-22T13:36:13.420Z,8.23
2019-02-22T13:38:42.106Z,6.97
2019-02-22T13:41:10.791Z,7.27
2019-02-22T13:43:39.428Z,7.50
2019-02-22T13:46:08.608Z,7.07
2019-02-22T13:48:37.428Z,6.83
2019-02-22T13:51:06.900Z,6.90
2019-02-22T13:53:35.505Z,7.07
2019-02-22T13:56:04.284Z,6.80
2019-02-22T13:58:32.884Z,6.43
2019-02-22T14:01:03.360Z,5.93
2019-02-22T14:03:32.052Z,6.80
2019-02-22T14:06:02.719Z,6.50
2019-02-22T14:08:31.288Z,6.33
2019-02-22T14:11:00.092Z,6.67
2019-02-22T14:13:28.854Z,6.90
2019-02-22T14:15:57.628Z,6.90
2019-02-22T14:18:26.298Z,7.07
2019-02-22T14:20:55.190Z,6.07
2019-02-22T14:23:23.980Z,6.70
2019-02-22T14:25:52.664Z,6.43
2019-02-22T14:28:21.404Z,6.43
2019-02-22T14:30:50.145Z,6.80
2019-02-22T14:33:18.934Z,7.13
2019-02-22T14:35:47.886Z,6.00
2019-02-22T14:38:16.778Z,6.87
2019-02-22T14:40:45.733Z,6.57
2019-02-22T14:43:16.804Z,5.97
2019-02-22T14:45:49.284Z,6.60
2019-02-22T14:48:15.349Z,6.30
2019-02-22T14:50:44.071Z,6.80
2019-02-22T14:53:19.516Z,6.57
2019-02-22T14:55:43.251Z,6.80
2019-02-22T14:58:12.149Z,7.03
2019-02-22T15:00:41.111Z,6.80
2019-02-22T15:03:09.851Z,7.10
2019-02-22T15:05:38.487Z,8.00
2019-02-22T15:08:07.224Z,7.47
2019-02-22T15:10:36.087Z,6.33
2019-02-22T15:13:04.918Z,7.63
2019-02-22T15:16:00.295Z,6.80
2019-02-22T15:18:22.215Z,7.37
2019-02-22T15:20:51.093Z,8.90
2019-02-22T15:23:19.875Z,8.07
2019-02-22T15:25:48.602Z,8.83
2019-02-22T15:28:17.407Z,9.23
2019-02-22T15:30:46.311Z,9.40
2019-02-22T15:33:15.090Z,9.10
2019-02-22T15:35:43.927Z,8.93
2019-02-22T15:38:12.557Z,9.07
2019-02-22T15:40:41.278Z,9.30
2019-02-22T15:43:09.962Z,8.50
2019-02-22T15:45:38.865Z,8.07
2019-02-22T15:48:07.545Z,8.43
2019-02-22T15:50:36.249Z,8.70
2019-02-22T15:53:05.270Z,8.80
2019-02-22T15:55:33.973Z,9.00
2019-02-22T15:58:02.699Z,8.83
2019-02-22T16:00:31.342Z,8.73
2019-02-22T16:03:02.063Z,8.40
2019-02-22T16:05:33.323Z,9.00
2019-02-22T16:08:02.158Z,8.57
2019-02-22T16:10:31.224Z,9.97
2019-02-22T16:13:01.678Z,9.67
2019-02-22T16:15:30.489Z,9.10
2019-02-22T16:17:59.194Z,9.50
2019-02-22T16:20:28.021Z,9.77
2019-02-22T16:22:56.759Z,9.77
2019-02-22T16:25:25.674Z,10.00
2019-02-22T16:27:54.465Z,10.43
2019-02-22T16:30:24.674Z,10.20
2019-02-22T16:32:53.572Z,10.07
2019-02-22T16:35:22.397Z,10.13
2019-02-22T16:37:51.088Z,9.97
2019-02-22T16:40:19.893Z,10.70
2019-02-22T16:42:48.979Z,10.27
2019-02-22T16:45:17.730Z,11.00
2019-02-22T16:47:46.469Z,11.80
2019-02-22T16:50:15.364Z,11.10
2019-02-22T16:52:45.339Z,12.83
2019-02-22T16:55:14.708Z,13.23
2019-02-22T16:57:43.575Z,13.10
2019-02-22T17:00:13.294Z,13.17
2019-02-22T17:02:42.009Z,13.33
2019-02-22T17:05:11.584Z,13.07
2019-02-22T17:07:40.262Z,13.43
2019-02-22T17:10:10.351Z,12.87
2019-02-22T17:12:39.120Z,13.10
2019-02-22T17:15:08.595Z,13.43
2019-02-22T17:17:37.449Z,13.73
2019-02-22T17:20:06.619Z,12.40
2019-02-22T17:22:35.631Z,14.20
2019-02-22T17:25:05.485Z,13.47
2019-02-22T17:27:34.287Z,13.27
2019-02-22T17:30:02.927Z,13.50
2019-02-22T17:32:33.881Z,13.47
2019-02-22T17:35:02.153Z,14.47
2019-02-22T17:37:30.989Z,13.90
2019-02-22T17:39:59.741Z,14.40
2019-02-22T17:42:28.605Z,12.27
2019-02-22T17:44:57.380Z,12.73
2019-02-22T17:47:26.217Z,12.33
2019-02-22T17:49:55.085Z,12.10
2019-02-22T17:52:23.870Z,12.17
2019-02-22T17:54:52.659Z,12.50
2019-02-22T17:57:21.553Z,13.47
2019-02-22T17:59:50.321Z,12.80
2019-02-22T18:02:19.043Z,13.57
2019-02-22T18:04:49.651Z,13.03
2019-02-22T18:07:18.326Z,14.00
2019-02-22T18:09:47.062Z,14.07
2019-02-22T18:12:15.757Z,14.07
2019-02-22T18:14:44.441Z,13.13
2019-02-22T18:17:13.277Z,13.70
2019-02-22T18:19:41.917Z,13.43
2019-02-22T18:22:10.925Z,13.13
2019-02-22T18:24:39.762Z,14.70
2019-02-22T18:27:08.394Z,13.67
2019-02-22T18:29:37.123Z,13.60
2019-02-22T18:32:05.730Z,14.03
2019-02-22T18:34:34.513Z,14.97
2019-02-22T18:37:03.383Z,15.20
2019-02-22T18:39:32.074Z,15.37
2019-02-22T18:42:01.001Z,15.03
2019-02-22T18:44:29.896Z,15.27
2019-02-22T18:46:58.723Z,14.53
2019-02-22T18:49:27.421Z,15.03
2019-02-22T18:51:56.095Z,16.87
2019-02-22T18:54:24.818Z,16.20
2019-02-22T18:56:53.700Z,16.90
2019-02-22T18:59:22.604Z,17.17
2019-02-22T19:01:51.518Z,17.43
2019-02-22T19:04:20.249Z,18.03
2019-02-22T19:06:48.991Z,17.80
2019-02-22T19:09:17.756Z,17.17
2019-02-22T19:11:46.518Z,16.80
2019-02-22T19:14:15.314Z,17.33
2019-02-22T19:16:43.980Z,17.83
2019-02-22T19:19:14.563Z,17.67
2019-02-22T19:21:43.195Z,18.40
2019-02-22T19:24:11.875Z,18.00
2019-02-22T19:26:40.573Z,17.70
2019-02-22T19:29:09.259Z,18.67
2019-02-22T19:31:37.917Z,17.70
2019-02-22T19:34:06.858Z,18.97
2019-02-22T19:36:35.506Z,18.10
2019-02-22T19:39:05.658Z,18.10
2019-02-22T19:41:34.475Z,18.37
2019-02-22T19:44:03.214Z,19.20
2019-02-22T19:46:31.913Z,18.40
2019-02-22T19:49:01.127Z,20.20
2019-02-22T19:51:29.882Z,18.97
2019-02-22T19:53:58.567Z,19.53
2019-02-22T19:56:27.269Z,20.03
2019-02-22T19:58:55.993Z,19.13
2019-02-22T20:01:24.766Z,19.07
2019-02-22T20:03:53.501Z,17.83
2019-02-22T20:06:22.199Z,18.90
2019-02-22T20:08:50.907Z,18.90
2019-02-22T20:11:19.741Z,18.23
2019-02-22T20:13:48.465Z,18.70
2019-02-22T20:16:17.093Z,19.27
2019-02-22T20:18:45.783Z,19.73
2019-02-22T20:21:14.529Z,17.80
2019-02-22T20:23:43.409Z,17.03
2019-02-22T20:26:12.119Z,16.80
2019-02-22T20:28:41.201Z,16.03
2019-02-22T20:31:19.794Z,15.43
2019-02-22T20:33:40.543Z,14.87
2019-02-22T20:36:09.499Z,16.80
2019-02-22T20:38:38.186Z,14.30
2019-02-22T20:41:07.425Z,15.83
2019-02-22T20:43:36.177Z,16.27
2019-02-22T20:46:04.821Z,16.00
2019-02-22T20:48:33.535Z,16.10
2019-02-22T20:51:02.171Z,14.57
2019-02-22T20:53:30.957Z,14.83
2019-02-22T20:55:59.831Z,15.17
2019-02-22T20:58:28.658Z,15.10
2019-02-22T21:00:57.385Z,15.20
2019-02-22T21:03:26.111Z,14.57
2019-02-22T21:05:54.962Z,14.47
2019-02-22T21:08:24.747Z,15.37
2019-02-22T21:10:53.806Z,15.03
2019-02-22T21:13:22.551Z,15.30
2019-02-22T21:15:51.298Z,14.70
2019-02-22T21:18:20.073Z,15.30
2019-02-22T21:20:48.914Z,16.10
2019-02-22T21:23:17.598Z,15.63
2019-02-22T21:25:48.231Z,15.40
2019-02-22T21:28:16.931Z,15.80
2019-02-22T21:30:45.549Z,14.63
2019-02-22T21:33:14.485Z,15.50
2019-02-22T21:35:43.201Z,14.90
2019-02-22T21:38:12.121Z,14.87
2019-02-22T21:40:40.895Z,15.40
2019-02-22T21:43:09.543Z,15.67
2019-02-22T21:45:38.231Z,15.33
2019-02-22T21:48:07.073Z,15.30
2019-02-22T21:50:35.837Z,15.10
2019-02-22T21:53:04.652Z,15.57
2019-02-22T21:55:33.378Z,14.27
2019-02-22T21:58:02.109Z,14.50
2019-02-22T22:00:31.387Z,16.33
2019-02-22T22:03:00.352Z,15.70
2019-02-22T22:05:29.119Z,16.23
2019-02-22T22:07:57.970Z,15.40
2019-02-22T22:10:26.734Z,15.80
2019-02-22T22:12:55.447Z,15.93
2019-02-22T22:15:24.598Z,15.87
2019-02-22T22:17:53.350Z,15.77
2019-02-22T22:20:22.061Z,15.30
2019-02-22T22:22:50.868Z,15.93
2019-02-22T22:25:19.550Z,15.57
2019-02-22T22:27:48.299Z,15.83
2019-02-22T22:30:17.130Z,15.10
2019-02-22T22:32:46.082Z,15.63
2019-02-22T22:35:14.789Z,16.70
2019-02-22T22:37:43.517Z,15.87
2019-02-22T22:40:12.928Z,15.90
2019-02-22T22:42:41.683Z,16.30
2019-02-22T22:45:10.628Z,15.97
2019-02-22T22:47:39.365Z,15.00
2019-02-22T22:50:08.935Z,15.80
2019-02-22T22:52:37.675Z,15.90
2019-02-22T22:55:07.085Z,15.60
2019-02-22T22:57:35.787Z,16.10
2019-02-22T23:00:06.637Z,16.83
2019-02-22T23:02:35.481Z,17.30
2019-02-22T23:05:05.480Z,18.17
2019-02-22T23:07:34.403Z,19.27
2019-02-22T23:10:04.063Z,17.53
2019-02-22T23:12:32.895Z,19.20
2019-02-22T23:15:01.869Z,20.03
2019-02-22T23:17:30.699Z,19.63
2019-02-22T23:19:59.555Z,21.30
2019-02-22T23:22:28.163Z,21.57
2019-02-22T23:24:56.831Z,21.00
2019-02-22T23:27:25.601Z,21.27
2019-02-22T23:29:54.201Z,22.40
2019-02-22T23:32:22.931Z,20.93
2019-02-22T23:34:51.901Z,22.53
2019-02-22T23:37:20.875Z,22.60
2019-02-22T23:39:49.593Z,22.53
2019-02-22T23:42:18.398Z,22.07
2019-02-22T23:44:47.227Z,23.03
2019-02-22T23:47:16.011Z,22.87
2019-02-22T23:49:44.785Z,22.90
2019-02-22T23:52:13.393Z,23.20
2019-02-22T23:54:42.170Z,22.17
2019-02-22T23:57:11.028Z,24.67
2019-02-22T23:59:39.747Z,25.00
